sensor_id;sensor_type;location;lat;lon;timestamp;temperature;humidity
6581;DHT22;3324;50.796;7.228;2023-10-13T00:00:56;17.30;99.90
6581;DHT22;3324;50.796;7.228;2023-10-13T00:03:23;17.20;99.90
6581;DHT22;3324;50.796;7.228;2023-10-13T00:05:48;17.20;99.90
6581;DHT22;3324;50.796;7.228;2023-10-13T00:08:18;17.20;99.90
6581;DHT22;3324;50.796;7.228;2023-10-13T00:10:43;17.20;99.90
6581;DHT22;3324;50.796;7.228;2023-10-13T00:13:09;17.20;99.90
6581;DHT22;3324;50.796;7.228;2023-10-13T00:15:41;17.20;99.90
6581;DHT22;3324;50.796;7.228;2023-10-13T00:18:16;17.30;99.90
6581;DHT22;3324;50.796;7.228;2023-10-13T00:20:44;17.30;99.90
6581;DHT22;3324;50.796;7.228;2023-10-13T00:23:15;17.20;99.90
6581;DHT22;3324;50.796;7.228;2023-10-13T00:25:47;17.20;99.90
6581;DHT22;3324;50.796;7.228;2023-10-13T00:28:17;17.20;99.90
6581;DHT22;3324;50.796;7.228;2023-10-13T00:30:51;17.20;99.90
6581;DHT22;3324;50.796;7.228;2023-10-13T00:33:18;17.30;99.90
6581;DHT22;3324;50.796;7.228;2023-10-13T00:35:49;17.40;99.90
6581;DHT22;3324;50.796;7.228;2023-10-13T00:38:17;17.40;99.90
6581;DHT22;3324;50.796;7.228;2023-10-13T00:40:44;17.30;99.90
6581;DHT22;3324;50.796;7.228;2023-10-13T00:43:17;17.30;99.90
6581;DHT22;3324;50.796;7.228;2023-10-13T00:45:46;17.30;99.90
6581;DHT22;3324;50.796;7.228;2023-10-13T00:48:28;17.30;99.90
6581;DHT22;3324;50.796;7.228;2023-10-13T00:51:06;17.30;99.90
6581;DHT22;3324;50.796;7.228;2023-10-13T00:53:35;17.30;99.90
6581;DHT22;3324;50.796;7.228;2023-10-13T00:56:05;17.40;99.90
6581;DHT22;3324;50.796;7.228;2023-10-13T00:58:35;17.30;99.90
6581;DHT22;3324;50.796;7.228;2023-10-13T01:01:04;17.30;99.90
6581;DHT22;3324;50.796;7.228;2023-10-13T01:03:48;17.30;99.90
6581;DHT22;3324;50.796;7.228;2023-10-13T01:06:17;17.30;99.90
6581;DHT22;3324;50.796;7.228;2023-10-13T01:08:46;17.20;99.90
6581;DHT22;3324;50.796;7.228;2023-10-13T01:11:17;17.30;99.90
6581;DHT22;3324;50.796;7.228;2023-10-13T01:13:42;17.20;99.90
6581;DHT22;3324;50.796;7.228;2023-10-13T01:16:08;17.20;99.90
6581;DHT22;3324;50.796;7.228;2023-10-13T01:18:34;17.20;99.90
6581;DHT22;3324;50.796;7.228;2023-10-13T01:21:12;17.10;99.90
6581;DHT22;3324;50.796;7.228;2023-10-13T01:23:40;17.10;99.90
6581;DHT22;3324;50.796;7.228;2023-10-13T01:26:07;17.10;99.90
6581;DHT22;3324;50.796;7.228;2023-10-13T01:28:34;17.00;99.90
6581;DHT22;3324;50.796;7.228;2023-10-13T01:31:10;17.00;99.90
6581;DHT22;3324;50.796;7.228;2023-10-13T01:33:37;17.10;99.90
6581;DHT22;3324;50.796;7.228;2023-10-13T01:36:03;17.00;99.90
6581;DHT22;3324;50.796;7.228;2023-10-13T01:38:32;17.10;99.90
6581;DHT22;3324;50.796;7.228;2023-10-13T01:40:58;17.10;99.90
6581;DHT22;3324;50.796;7.228;2023-10-13T01:43:24;17.10;99.90
6581;DHT22;3324;50.796;7.228;2023-10-13T01:45:50;17.10;99.90
6581;DHT22;3324;50.796;7.228;2023-10-13T01:48:15;17.10;99.90
6581;DHT22;3324;50.796;7.228;2023-10-13T01:50:44;17.10;99.90
6581;DHT22;3324;50.796;7.228;2023-10-13T01:53:13;17.10;99.90
6581;DHT22;3324;50.796;7.228;2023-10-13T01:55:39;17.10;99.90
6581;DHT22;3324;50.796;7.228;2023-10-13T01:58:11;17.10;99.90
6581;DHT22;3324;50.796;7.228;2023-10-13T02:00:44;17.10;99.90
6581;DHT22;3324;50.796;7.228;2023-10-13T02:03:09;17.10;99.90
6581;DHT22;3324;50.796;7.228;2023-10-13T02:05:46;17.10;99.90
6581;DHT22;3324;50.796;7.228;2023-10-13T02:08:15;17.00;99.90
6581;DHT22;3324;50.796;7.228;2023-10-13T02:10:46;17.00;99.90
6581;DHT22;3324;50.796;7.228;2023-10-13T02:13:15;17.00;99.90
6581;DHT22;3324;50.796;7.228;2023-10-13T02:15:44;17.10;99.90
6581;DHT22;3324;50.796;7.228;2023-10-13T02:18:12;17.00;99.90
6581;DHT22;3324;50.796;7.228;2023-10-13T02:20:38;17.10;99.90
6581;DHT22;3324;50.796;7.228;2023-10-13T02:23:08;17.10;99.90
6581;DHT22;3324;50.796;7.228;2023-10-13T02:25:36;17.10;99.90
6581;DHT22;3324;50.796;7.228;2023-10-13T02:28:08;17.20;99.90
6581;DHT22;3324;50.796;7.228;2023-10-13T02:30:38;17.10;99.90
6581;DHT22;3324;50.796;7.228;2023-10-13T02:33:04;17.10;99.90
6581;DHT22;3324;50.796;7.228;2023-10-13T02:35:31;17.10;99.90
6581;DHT22;3324;50.796;7.228;2023-10-13T02:38:09;17.10;99.90
6581;DHT22;3324;50.796;7.228;2023-10-13T02:40:38;17.10;99.90
6581;DHT22;3324;50.796;7.228;2023-10-13T02:43:03;17.10;99.90
6581;DHT22;3324;50.796;7.228;2023-10-13T02:45:31;17.00;99.90
6581;DHT22;3324;50.796;7.228;2023-10-13T02:47:56;17.10;99.90
6581;DHT22;3324;50.796;7.228;2023-10-13T02:50:42;17.00;99.90
6581;DHT22;3324;50.796;7.228;2023-10-13T02:53:09;17.00;99.90
6581;DHT22;3324;50.796;7.228;2023-10-13T02:55:38;17.00;99.90
6581;DHT22;3324;50.796;7.228;2023-10-13T02:58:04;17.00;99.90
6581;DHT22;3324;50.796;7.228;2023-10-13T03:00:30;16.90;99.90
6581;DHT22;3324;50.796;7.228;2023-10-13T03:02:57;16.90;99.90
6581;DHT22;3324;50.796;7.228;2023-10-13T03:05:26;16.90;99.90
6581;DHT22;3324;50.796;7.228;2023-10-13T03:07:56;17.00;99.90
6581;DHT22;3324;50.796;7.228;2023-10-13T03:10:24;17.00;99.90
6581;DHT22;3324;50.796;7.228;2023-10-13T03:12:54;17.00;99.90
6581;DHT22;3324;50.796;7.228;2023-10-13T03:15:19;17.00;99.90
6581;DHT22;3324;50.796;7.228;2023-10-13T03:17:47;17.00;99.90
6581;DHT22;3324;50.796;7.228;2023-10-13T03:20:13;17.00;99.90
6581;DHT22;3324;50.796;7.228;2023-10-13T03:22:40;17.00;99.90
6581;DHT22;3324;50.796;7.228;2023-10-13T03:25:10;17.00;99.90
6581;DHT22;3324;50.796;7.228;2023-10-13T03:27:43;17.00;99.90
6581;DHT22;3324;50.796;7.228;2023-10-13T03:30:17;17.00;99.90
6581;DHT22;3324;50.796;7.228;2023-10-13T03:32:43;17.00;99.90
6581;DHT22;3324;50.796;7.228;2023-10-13T03:35:12;17.10;99.90
6581;DHT22;3324;50.796;7.228;2023-10-13T03:37:50;17.10;99.90
6581;DHT22;3324;50.796;7.228;2023-10-13T03:40:15;17.10;99.90
6581;DHT22;3324;50.796;7.228;2023-10-13T03:42:47;17.10;99.90
6581;DHT22;3324;50.796;7.228;2023-10-13T03:48:10;17.10;99.90
6581;DHT22;3324;50.796;7.228;2023-10-13T03:50:58;17.10;99.90
6581;DHT22;3324;50.796;7.228;2023-10-13T03:53:33;17.00;99.90
6581;DHT22;3324;50.796;7.228;2023-10-13T03:56:00;17.10;99.90
6581;DHT22;3324;50.796;7.228;2023-10-13T03:58:40;17.00;99.90
6581;DHT22;3324;50.796;7.228;2023-10-13T04:01:12;17.10;99.90
6581;DHT22;3324;50.796;7.228;2023-10-13T04:03:41;17.10;99.90
6581;DHT22;3324;50.796;7.228;2023-10-13T04:06:22;17.10;99.90
6581;DHT22;3324;50.796;7.228;2023-10-13T04:09:08;17.10;99.90
6581;DHT22;3324;50.796;7.228;2023-10-13T04:11:52;17.10;99.90
6581;DHT22;3324;50.796;7.228;2023-10-13T04:14:38;17.20;99.90
6581;DHT22;3324;50.796;7.228;2023-10-13T04:17:23;17.20;99.90
6581;DHT22;3324;50.796;7.228;2023-10-13T04:19:51;17.20;99.90
6581;DHT22;3324;50.796;7.228;2023-10-13T04:22:38;17.20;99.90
6581;DHT22;3324;50.796;7.228;2023-10-13T04:27:56;17.20;99.90
6581;DHT22;3324;50.796;7.228;2023-10-13T04:30:44;17.30;99.90
6581;DHT22;3324;50.796;7.228;2023-10-13T04:36:06;17.30;99.90
6581;DHT22;3324;50.796;7.228;2023-10-13T04:38:51;17.30;99.90
6581;DHT22;3324;50.796;7.228;2023-10-13T04:41:30;17.30;99.90
6581;DHT22;3324;50.796;7.228;2023-10-13T04:44:07;17.40;99.90
6581;DHT22;3324;50.796;7.228;2023-10-13T04:46:52;17.40;99.90
6581;DHT22;3324;50.796;7.228;2023-10-13T04:49:20;17.40;99.90
6581;DHT22;3324;50.796;7.228;2023-10-13T04:51:57;17.40;99.90
6581;DHT22;3324;50.796;7.228;2023-10-13T04:54:44;17.40;99.90
6581;DHT22;3324;50.796;7.228;2023-10-13T04:57:16;17.40;99.90
6581;DHT22;3324;50.796;7.228;2023-10-13T04:59:58;17.40;99.90
6581;DHT22;3324;50.796;7.228;2023-10-13T05:02:36;17.40;99.90
6581;DHT22;3324;50.796;7.228;2023-10-13T05:05:02;17.40;99.90
6581;DHT22;3324;50.796;7.228;2023-10-13T05:07:33;17.40;99.90
6581;DHT22;3324;50.796;7.228;2023-10-13T05:10:18;17.40;99.90
6581;DHT22;3324;50.796;7.228;2023-10-13T05:13:02;17.40;99.90
6581;DHT22;3324;50.796;7.228;2023-10-13T05:15:46;17.50;99.90
6581;DHT22;3324;50.796;7.228;2023-10-13T05:18:31;17.50;99.90
6581;DHT22;3324;50.796;7.228;2023-10-13T05:21:15;17.40;99.90
6581;DHT22;3324;50.796;7.228;2023-10-13T05:23:59;17.50;99.90
6581;DHT22;3324;50.796;7.228;2023-10-13T05:26:44;17.50;99.90
6581;DHT22;3324;50.796;7.228;2023-10-13T05:29:28;17.60;99.90
6581;DHT22;3324;50.796;7.228;2023-10-13T05:32:12;17.50;99.90
6581;DHT22;3324;50.796;7.228;2023-10-13T05:34:56;17.50;99.90
6581;DHT22;3324;50.796;7.228;2023-10-13T05:37:40;17.60;99.90
6581;DHT22;3324;50.796;7.228;2023-10-13T05:40:25;17.60;99.90
6581;DHT22;3324;50.796;7.228;2023-10-13T05:43:09;17.60;99.90
6581;DHT22;3324;50.796;7.228;2023-10-13T05:45:55;17.50;99.90
6581;DHT22;3324;50.796;7.228;2023-10-13T05:48:47;17.60;99.90
6581;DHT22;3324;50.796;7.228;2023-10-13T05:51:27;17.50;99.90
6581;DHT22;3324;50.796;7.228;2023-10-13T05:54:08;17.50;99.90
6581;DHT22;3324;50.796;7.228;2023-10-13T05:59:29;17.50;99.90
6581;DHT22;3324;50.796;7.228;2023-10-13T06:02:23;17.60;99.90
6581;DHT22;3324;50.796;7.228;2023-10-13T06:05:08;17.60;99.90
6581;DHT22;3324;50.796;7.228;2023-10-13T06:07:52;17.50;99.90
6581;DHT22;3324;50.796;7.228;2023-10-13T06:10:36;17.60;99.90
6581;DHT22;3324;50.796;7.228;2023-10-13T06:13:20;17.60;99.90
6581;DHT22;3324;50.796;7.228;2023-10-13T06:16:14;17.70;99.90
6581;DHT22;3324;50.796;7.228;2023-10-13T06:18:58;17.80;99.90
6581;DHT22;3324;50.796;7.228;2023-10-13T06:21:42;17.80;99.90
6581;DHT22;3324;50.796;7.228;2023-10-13T06:24:27;17.80;99.90
6581;DHT22;3324;50.796;7.228;2023-10-13T06:27:11;17.80;99.90
6581;DHT22;3324;50.796;7.228;2023-10-13T06:29:55;17.80;99.90
6581;DHT22;3324;50.796;7.228;2023-10-13T06:32:21;17.80;99.90
6581;DHT22;3324;50.796;7.228;2023-10-13T06:34:54;17.80;99.90
6581;DHT22;3324;50.796;7.228;2023-10-13T06:37:23;17.80;99.90
6581;DHT22;3324;50.796;7.228;2023-10-13T06:39:56;17.90;99.90
6581;DHT22;3324;50.796;7.228;2023-10-13T06:42:25;17.80;99.90
6581;DHT22;3324;50.796;7.228;2023-10-13T06:44:53;17.90;99.90
6581;DHT22;3324;50.796;7.228;2023-10-13T06:47:19;17.90;99.90
6581;DHT22;3324;50.796;7.228;2023-10-13T06:49:45;17.90;99.90
6581;DHT22;3324;50.796;7.228;2023-10-13T06:52:14;17.90;99.90
6581;DHT22;3324;50.796;7.228;2023-10-13T06:54:41;17.90;99.90
6581;DHT22;3324;50.796;7.228;2023-10-13T06:57:08;18.00;99.90
6581;DHT22;3324;50.796;7.228;2023-10-13T06:59:42;18.00;99.90
6581;DHT22;3324;50.796;7.228;2023-10-13T07:02:08;18.00;99.90
6581;DHT22;3324;50.796;7.228;2023-10-13T07:04:35;18.00;99.90
6581;DHT22;3324;50.796;7.228;2023-10-13T07:07:05;18.10;99.90
6581;DHT22;3324;50.796;7.228;2023-10-13T07:09:31;18.10;99.90
6581;DHT22;3324;50.796;7.228;2023-10-13T07:11:59;18.20;99.90
6581;DHT22;3324;50.796;7.228;2023-10-13T07:14:29;18.20;99.90
6581;DHT22;3324;50.796;7.228;2023-10-13T07:16:56;18.30;99.90
6581;DHT22;3324;50.796;7.228;2023-10-13T07:19:27;18.30;99.90
6581;DHT22;3324;50.796;7.228;2023-10-13T07:21:56;18.40;99.90
6581;DHT22;3324;50.796;7.228;2023-10-13T07:24:28;18.40;99.90
6581;DHT22;3324;50.796;7.228;2023-10-13T07:26:59;18.50;99.90
6581;DHT22;3324;50.796;7.228;2023-10-13T07:29:30;18.50;99.90
6581;DHT22;3324;50.796;7.228;2023-10-13T07:31:56;18.50;99.90
6581;DHT22;3324;50.796;7.228;2023-10-13T07:34:21;18.50;99.90
6581;DHT22;3324;50.796;7.228;2023-10-13T07:36:54;18.60;99.90
6581;DHT22;3324;50.796;7.228;2023-10-13T07:39:25;18.60;99.90
6581;DHT22;3324;50.796;7.228;2023-10-13T07:41:51;18.60;99.90
6581;DHT22;3324;50.796;7.228;2023-10-13T07:44:22;18.60;99.90
6581;DHT22;3324;50.796;7.228;2023-10-13T07:46:51;18.70;99.90
6581;DHT22;3324;50.796;7.228;2023-10-13T07:49:25;18.60;99.90
6581;DHT22;3324;50.796;7.228;2023-10-13T07:52:05;18.70;99.90
6581;DHT22;3324;50.796;7.228;2023-10-13T07:54:49;18.70;99.90
6581;DHT22;3324;50.796;7.228;2023-10-13T07:57:24;18.70;99.90
6581;DHT22;3324;50.796;7.228;2023-10-13T07:59:56;18.80;99.90
6581;DHT22;3324;50.796;7.228;2023-10-13T08:02:32;18.80;99.90
6581;DHT22;3324;50.796;7.228;2023-10-13T08:05:14;18.80;99.90
6581;DHT22;3324;50.796;7.228;2023-10-13T08:07:50;18.80;99.90
6581;DHT22;3324;50.796;7.228;2023-10-13T08:10:15;18.90;99.90
6581;DHT22;3324;50.796;7.228;2023-10-13T08:12:42;19.00;99.90
6581;DHT22;3324;50.796;7.228;2023-10-13T08:15:09;19.30;99.90
6581;DHT22;3324;50.796;7.228;2023-10-13T08:17:46;19.30;99.90
6581;DHT22;3324;50.796;7.228;2023-10-13T08:20:11;19.40;99.90
6581;DHT22;3324;50.796;7.228;2023-10-13T08:22:38;19.40;99.90
6581;DHT22;3324;50.796;7.228;2023-10-13T08:25:04;19.50;99.90
6581;DHT22;3324;50.796;7.228;2023-10-13T08:28:07;19.50;99.90
6581;DHT22;3324;50.796;7.228;2023-10-13T08:30:51;19.50;99.90
6581;DHT22;3324;50.796;7.228;2023-10-13T08:33:17;19.50;99.90
6581;DHT22;3324;50.796;7.228;2023-10-13T08:35:44;19.40;99.90
6581;DHT22;3324;50.796;7.228;2023-10-13T08:38:41;19.30;99.90
6581;DHT22;3324;50.796;7.228;2023-10-13T08:41:21;19.30;99.90
6581;DHT22;3324;50.796;7.228;2023-10-13T08:43:52;19.30;99.90
6581;DHT22;3324;50.796;7.228;2023-10-13T08:46:18;19.40;99.90
6581;DHT22;3324;50.796;7.228;2023-10-13T08:49:02;19.40;99.90
6581;DHT22;3324;50.796;7.228;2023-10-13T08:51:43;19.50;99.90
6581;DHT22;3324;50.796;7.228;2023-10-13T08:54:28;19.70;99.90
6581;DHT22;3324;50.796;7.228;2023-10-13T08:57:00;19.80;99.90
6581;DHT22;3324;50.796;7.228;2023-10-13T08:59:45;19.90;99.90
6581;DHT22;3324;50.796;7.228;2023-10-13T09:02:20;20.10;99.90
6581;DHT22;3324;50.796;7.228;2023-10-13T09:04:47;20.20;99.90
6581;DHT22;3324;50.796;7.228;2023-10-13T09:07:24;20.30;99.90
6581;DHT22;3324;50.796;7.228;2023-10-13T09:09:51;20.30;99.90
6581;DHT22;3324;50.796;7.228;2023-10-13T09:12:21;20.30;99.90
6581;DHT22;3324;50.796;7.228;2023-10-13T09:15:13;20.40;99.90
6581;DHT22;3324;50.796;7.228;2023-10-13T09:17:42;20.40;99.90
6581;DHT22;3324;50.796;7.228;2023-10-13T09:20:14;20.40;99.90
6581;DHT22;3324;50.796;7.228;2023-10-13T09:22:52;20.50;99.90
6581;DHT22;3324;50.796;7.228;2023-10-13T09:25:29;20.50;99.90
6581;DHT22;3324;50.796;7.228;2023-10-13T09:28:01;20.50;99.90
6581;DHT22;3324;50.796;7.228;2023-10-13T09:30:27;20.50;99.90
6581;DHT22;3324;50.796;7.228;2023-10-13T09:33:03;20.60;99.90
6581;DHT22;3324;50.796;7.228;2023-10-13T09:35:33;20.60;99.90
6581;DHT22;3324;50.796;7.228;2023-10-13T09:37:59;20.70;99.90
6581;DHT22;3324;50.796;7.228;2023-10-13T09:40:27;20.60;99.90
6581;DHT22;3324;50.796;7.228;2023-10-13T09:43:11;20.70;99.90
6581;DHT22;3324;50.796;7.228;2023-10-13T09:45:40;20.70;99.90
6581;DHT22;3324;50.796;7.228;2023-10-13T09:48:34;20.70;99.90
6581;DHT22;3324;50.796;7.228;2023-10-13T09:51:01;20.80;99.90
6581;DHT22;3324;50.796;7.228;2023-10-13T09:53:29;20.80;99.90
6581;DHT22;3324;50.796;7.228;2023-10-13T09:56:11;20.80;99.90
6581;DHT22;3324;50.796;7.228;2023-10-13T09:58:46;20.80;99.90
6581;DHT22;3324;50.796;7.228;2023-10-13T10:01:14;20.80;99.90
6581;DHT22;3324;50.796;7.228;2023-10-13T10:03:50;20.90;99.90
6581;DHT22;3324;50.796;7.228;2023-10-13T10:06:33;21.00;99.90
6581;DHT22;3324;50.796;7.228;2023-10-13T10:09:09;21.00;99.90
6581;DHT22;3324;50.796;7.228;2023-10-13T10:14:13;21.10;99.90
6581;DHT22;3324;50.796;7.228;2023-10-13T10:17:02;21.20;99.90
6581;DHT22;3324;50.796;7.228;2023-10-13T10:19:33;21.30;99.90
6581;DHT22;3324;50.796;7.228;2023-10-13T10:22:04;21.30;99.90
6581;DHT22;3324;50.796;7.228;2023-10-13T10:24:57;21.40;99.90
6581;DHT22;3324;50.796;7.228;2023-10-13T10:27:27;21.50;99.90
6581;DHT22;3324;50.796;7.228;2023-10-13T10:29:54;21.50;99.90
6581;DHT22;3324;50.796;7.228;2023-10-13T10:32:20;21.50;99.90
6581;DHT22;3324;50.796;7.228;2023-10-13T10:34:46;21.60;99.90
6581;DHT22;3324;50.796;7.228;2023-10-13T10:37:12;21.60;99.90
6581;DHT22;3324;50.796;7.228;2023-10-13T10:39:38;21.70;99.90
6581;DHT22;3324;50.796;7.228;2023-10-13T10:42:14;21.70;99.90
6581;DHT22;3324;50.796;7.228;2023-10-13T10:44:41;21.70;99.90
6581;DHT22;3324;50.796;7.228;2023-10-13T10:47:12;21.80;99.90
6581;DHT22;3324;50.796;7.228;2023-10-13T10:49:59;21.80;99.90
6581;DHT22;3324;50.796;7.228;2023-10-13T10:52:44;21.80;99.90
6581;DHT22;3324;50.796;7.228;2023-10-13T10:55:12;21.80;99.90
6581;DHT22;3324;50.796;7.228;2023-10-13T10:57:44;21.80;99.90
6581;DHT22;3324;50.796;7.228;2023-10-13T11:00:19;21.90;99.90
6581;DHT22;3324;50.796;7.228;2023-10-13T11:02:54;21.80;99.90
6581;DHT22;3324;50.796;7.228;2023-10-13T11:05:20;21.90;99.90
6581;DHT22;3324;50.796;7.228;2023-10-13T11:07:46;22.00;99.90
6581;DHT22;3324;50.796;7.228;2023-10-13T11:10:16;22.00;99.90
6581;DHT22;3324;50.796;7.228;2023-10-13T11:12:56;22.10;99.90
6581;DHT22;3324;50.796;7.228;2023-10-13T11:15:22;22.10;99.90
6581;DHT22;3324;50.796;7.228;2023-10-13T11:17:49;22.20;99.90
6581;DHT22;3324;50.796;7.228;2023-10-13T11:20:22;22.20;99.90
6581;DHT22;3324;50.796;7.228;2023-10-13T11:22:58;22.30;99.90
6581;DHT22;3324;50.796;7.228;2023-10-13T11:25:26;22.40;99.90
6581;DHT22;3324;50.796;7.228;2023-10-13T11:30:35;22.50;99.90
6581;DHT22;3324;50.796;7.228;2023-10-13T11:33:01;22.50;99.90
6581;DHT22;3324;50.796;7.228;2023-10-13T11:35:31;22.50;99.90
6581;DHT22;3324;50.796;7.228;2023-10-13T11:38:17;22.50;99.90
6581;DHT22;3324;50.796;7.228;2023-10-13T11:43:51;22.60;99.90
6581;DHT22;3324;50.796;7.228;2023-10-13T11:49:04;22.70;99.90
6581;DHT22;3324;50.796;7.228;2023-10-13T11:51:42;22.70;99.90
6581;DHT22;3324;50.796;7.228;2023-10-13T11:54:16;22.70;99.90
6581;DHT22;3324;50.796;7.228;2023-10-13T11:56:43;22.80;99.90
6581;DHT22;3324;50.796;7.228;2023-10-13T11:59:08;22.80;99.90
6581;DHT22;3324;50.796;7.228;2023-10-13T12:04:29;22.90;99.90
6581;DHT22;3324;50.796;7.228;2023-10-13T12:07:14;22.90;99.90
6581;DHT22;3324;50.796;7.228;2023-10-13T12:09:40;22.90;99.90
6581;DHT22;3324;50.796;7.228;2023-10-13T12:12:25;22.90;99.90
6581;DHT22;3324;50.796;7.228;2023-10-13T12:14:51;22.90;99.90
6581;DHT22;3324;50.796;7.228;2023-10-13T12:17:28;23.00;99.90
6581;DHT22;3324;50.796;7.228;2023-10-13T12:20:02;23.00;99.90
6581;DHT22;3324;50.796;7.228;2023-10-13T12:22:34;23.10;99.90
6581;DHT22;3324;50.796;7.228;2023-10-13T12:25:16;23.10;99.90
6581;DHT22;3324;50.796;7.228;2023-10-13T12:27:59;23.30;99.90
6581;DHT22;3324;50.796;7.228;2023-10-13T12:30:41;23.30;99.90
6581;DHT22;3324;50.796;7.228;2023-10-13T12:33:21;23.30;99.90
6581;DHT22;3324;50.796;7.228;2023-10-13T12:35:51;23.40;99.90
6581;DHT22;3324;50.796;7.228;2023-10-13T12:38:30;23.40;99.90
6581;DHT22;3324;50.796;7.228;2023-10-13T12:41:17;23.40;99.90
6581;DHT22;3324;50.796;7.228;2023-10-13T12:44:01;23.40;99.90
6581;DHT22;3324;50.796;7.228;2023-10-13T12:46:46;23.30;99.90
6581;DHT22;3324;50.796;7.228;2023-10-13T12:49:34;23.30;99.90
6581;DHT22;3324;50.796;7.228;2023-10-13T12:52:08;23.20;99.90
6581;DHT22;3324;50.796;7.228;2023-10-13T12:54:51;23.20;99.90
6581;DHT22;3324;50.796;7.228;2023-10-13T12:57:22;23.30;99.90
6581;DHT22;3324;50.796;7.228;2023-10-13T12:59:48;23.30;99.90
6581;DHT22;3324;50.796;7.228;2023-10-13T13:02:14;23.40;99.90
6581;DHT22;3324;50.796;7.228;2023-10-13T13:04:43;23.50;99.90
6581;DHT22;3324;50.796;7.228;2023-10-13T13:07:09;23.50;99.90
6581;DHT22;3324;50.796;7.228;2023-10-13T13:09:41;23.50;99.90
6581;DHT22;3324;50.796;7.228;2023-10-13T13:12:06;23.50;99.90
6581;DHT22;3324;50.796;7.228;2023-10-13T13:14:32;23.50;99.90
6581;DHT22;3324;50.796;7.228;2023-10-13T13:17:00;23.50;99.90
6581;DHT22;3324;50.796;7.228;2023-10-13T13:19:32;23.50;99.90
6581;DHT22;3324;50.796;7.228;2023-10-13T13:22:01;23.40;99.90
6581;DHT22;3324;50.796;7.228;2023-10-13T13:24:27;23.40;99.90
6581;DHT22;3324;50.796;7.228;2023-10-13T13:26:58;23.30;99.90
6581;DHT22;3324;50.796;7.228;2023-10-13T13:29:30;23.30;99.90
6581;DHT22;3324;50.796;7.228;2023-10-13T13:31:56;23.30;99.90
6581;DHT22;3324;50.796;7.228;2023-10-13T13:34:21;23.30;99.90
6581;DHT22;3324;50.796;7.228;2023-10-13T13:36:47;23.30;99.90
6581;DHT22;3324;50.796;7.228;2023-10-13T13:39:20;23.30;99.90
6581;DHT22;3324;50.796;7.228;2023-10-13T13:41:54;23.30;99.90
6581;DHT22;3324;50.796;7.228;2023-10-13T13:44:24;23.30;99.90
6581;DHT22;3324;50.796;7.228;2023-10-13T13:47:01;23.30;99.90
6581;DHT22;3324;50.796;7.228;2023-10-13T13:49:47;23.40;99.90
6581;DHT22;3324;50.796;7.228;2023-10-13T13:52:21;23.40;99.90
6581;DHT22;3324;50.796;7.228;2023-10-13T13:54:58;23.50;99.90
6581;DHT22;3324;50.796;7.228;2023-10-13T13:57:27;23.40;99.90
6581;DHT22;3324;50.796;7.228;2023-10-13T13:59:53;23.40;99.90
6581;DHT22;3324;50.796;7.228;2023-10-13T14:02:18;23.40;99.90
6581;DHT22;3324;50.796;7.228;2023-10-13T14:04:47;23.40;99.90
6581;DHT22;3324;50.796;7.228;2023-10-13T14:07:15;23.40;99.90
6581;DHT22;3324;50.796;7.228;2023-10-13T14:09:42;23.30;99.90
6581;DHT22;3324;50.796;7.228;2023-10-13T14:12:09;23.30;99.90
6581;DHT22;3324;50.796;7.228;2023-10-13T14:14:54;23.30;99.90
6581;DHT22;3324;50.796;7.228;2023-10-13T14:17:23;23.30;99.90
6581;DHT22;3324;50.796;7.228;2023-10-13T14:19:55;23.30;99.90
6581;DHT22;3324;50.796;7.228;2023-10-13T14:22:20;23.20;99.90
6581;DHT22;3324;50.796;7.228;2023-10-13T14:24:50;23.20;99.90
6581;DHT22;3324;50.796;7.228;2023-10-13T14:27:19;23.20;99.90
6581;DHT22;3324;50.796;7.228;2023-10-13T14:29:48;23.20;99.90
6581;DHT22;3324;50.796;7.228;2023-10-13T14:32:18;23.20;99.90
6581;DHT22;3324;50.796;7.228;2023-10-13T14:34:44;23.20;99.90
6581;DHT22;3324;50.796;7.228;2023-10-13T14:37:11;23.20;99.90
6581;DHT22;3324;50.796;7.228;2023-10-13T14:39:40;23.20;99.90
6581;DHT22;3324;50.796;7.228;2023-10-13T14:42:05;23.20;99.90
6581;DHT22;3324;50.796;7.228;2023-10-13T14:44:32;23.20;99.90
6581;DHT22;3324;50.796;7.228;2023-10-13T14:46:57;23.20;99.90
6581;DHT22;3324;50.796;7.228;2023-10-13T14:49:23;23.30;99.90
6581;DHT22;3324;50.796;7.228;2023-10-13T14:51:48;23.30;99.90
6581;DHT22;3324;50.796;7.228;2023-10-13T14:54:15;23.20;99.90
6581;DHT22;3324;50.796;7.228;2023-10-13T14:56:40;23.30;99.90
6581;DHT22;3324;50.796;7.228;2023-10-13T14:59:09;23.20;99.90
6581;DHT22;3324;50.796;7.228;2023-10-13T15:01:42;23.30;99.90
6581;DHT22;3324;50.796;7.228;2023-10-13T15:04:07;23.20;99.90
6581;DHT22;3324;50.796;7.228;2023-10-13T15:06:33;23.20;99.90
6581;DHT22;3324;50.796;7.228;2023-10-13T15:08:59;23.30;99.90
6581;DHT22;3324;50.796;7.228;2023-10-13T15:11:25;23.20;99.90
6581;DHT22;3324;50.796;7.228;2023-10-13T15:14:11;23.20;99.90
6581;DHT22;3324;50.796;7.228;2023-10-13T15:16:38;23.30;99.90
6581;DHT22;3324;50.796;7.228;2023-10-13T15:19:04;23.30;99.90
6581;DHT22;3324;50.796;7.228;2023-10-13T15:21:32;23.30;99.90
6581;DHT22;3324;50.796;7.228;2023-10-13T15:24:04;23.20;99.90
6581;DHT22;3324;50.796;7.228;2023-10-13T15:26:30;23.20;99.90
6581;DHT22;3324;50.796;7.228;2023-10-13T15:28:57;23.20;99.90
6581;DHT22;3324;50.796;7.228;2023-10-13T15:31:22;23.20;99.90
6581;DHT22;3324;50.796;7.228;2023-10-13T15:33:51;23.20;99.90
6581;DHT22;3324;50.796;7.228;2023-10-13T15:36:23;23.10;99.90
6581;DHT22;3324;50.796;7.228;2023-10-13T15:38:51;23.10;99.90
6581;DHT22;3324;50.796;7.228;2023-10-13T15:41:22;23.10;99.90
6581;DHT22;3324;50.796;7.228;2023-10-13T15:43:48;23.00;99.90
6581;DHT22;3324;50.796;7.228;2023-10-13T15:46:18;23.00;99.90
6581;DHT22;3324;50.796;7.228;2023-10-13T15:48:46;23.00;99.90
6581;DHT22;3324;50.796;7.228;2023-10-13T15:51:12;23.00;99.90
6581;DHT22;3324;50.796;7.228;2023-10-13T15:53:38;23.00;99.90
6581;DHT22;3324;50.796;7.228;2023-10-13T15:56:03;22.90;99.90
6581;DHT22;3324;50.796;7.228;2023-10-13T15:58:37;22.90;99.90
6581;DHT22;3324;50.796;7.228;2023-10-13T16:01:03;22.90;99.90
6581;DHT22;3324;50.796;7.228;2023-10-13T16:03:29;22.90;99.90
6581;DHT22;3324;50.796;7.228;2023-10-13T16:05:54;22.90;99.90
6581;DHT22;3324;50.796;7.228;2023-10-13T16:08:20;22.90;99.90
6581;DHT22;3324;50.796;7.228;2023-10-13T16:10:46;22.90;99.90
6581;DHT22;3324;50.796;7.228;2023-10-13T16:13:11;22.70;99.90
6581;DHT22;3324;50.796;7.228;2023-10-13T16:15:45;22.70;99.90
6581;DHT22;3324;50.796;7.228;2023-10-13T16:18:12;22.60;99.90
6581;DHT22;3324;50.796;7.228;2023-10-13T16:20:38;22.60;99.90
6581;DHT22;3324;50.796;7.228;2023-10-13T16:23:05;22.60;99.90
6581;DHT22;3324;50.796;7.228;2023-10-13T16:25:31;22.50;99.90
6581;DHT22;3324;50.796;7.228;2023-10-13T16:27:56;22.40;99.90
6581;DHT22;3324;50.796;7.228;2023-10-13T16:30:21;22.40;99.90
6581;DHT22;3324;50.796;7.228;2023-10-13T16:32:47;22.50;99.90
6581;DHT22;3324;50.796;7.228;2023-10-13T16:35:15;22.50;99.90
6581;DHT22;3324;50.796;7.228;2023-10-13T16:37:47;22.50;99.90
6581;DHT22;3324;50.796;7.228;2023-10-13T16:40:16;22.40;99.90
6581;DHT22;3324;50.796;7.228;2023-10-13T16:42:43;22.50;99.90
6581;DHT22;3324;50.796;7.228;2023-10-13T16:45:09;22.40;99.90
6581;DHT22;3324;50.796;7.228;2023-10-13T16:47:44;22.50;99.90
6581;DHT22;3324;50.796;7.228;2023-10-13T16:50:10;22.40;99.90
6581;DHT22;3324;50.796;7.228;2023-10-13T16:52:36;22.50;99.90
6581;DHT22;3324;50.796;7.228;2023-10-13T16:55:02;22.60;99.90
6581;DHT22;3324;50.796;7.228;2023-10-13T16:57:28;22.60;99.90
6581;DHT22;3324;50.796;7.228;2023-10-13T16:59:54;22.60;99.90